Largo — PFNC — position and weather

sailwx.info

Track history (hours):
 
Tides and Currents Weather Stations Pressure Air Temp Water Temp Dewpoint Dewpoint Depression Visibility Wind Speed Wind Dir Waves Ship Positions

Largo

Last reported at 2015-Aug-26 21:19 UTC. Time now 2015-Sep-02 06:30 UTC.
Position N 37°29' E 004°07'.

Length 91 m; draft 6.6 m.

Type: Cargo ship. MMSI: 245645000.

Date/timePositionNaut miles runAvg speedWind from/ knotsBaromVisibWave heightAir tempDewpointWater temp
2015-Aug-26 21:19N 37°29' E 004°07'21 7.3
2015-Aug-26 18:29N 37°43' E 003°47'8 7.4
2015-Aug-26 17:25N 37°48' E 003°40'10 7.5
2015-Aug-26 16:09N 37°55' E 003°31'29 7.2
2015-Aug-26 12:07N 38°14' E 003°04'21 8.0
2015-Aug-26 09:27N 38°28' E 002°43'25 8.3
2015-Aug-26 06:27N 38°45' E 002°19'9 8.5
2015-Aug-26 05:27N 38°50' E 002°11'8 8.9
2015-Aug-26 04:33N 38°55' E 002°03'9 8.8
2015-Aug-26 03:33N 39°01' E 001°55'9 8.7
2015-Aug-26 02:33N 39°07' E 001°46'9 8.8
2015-Aug-26 01:33N 39°12' E 001°37'11 8.7
2015-Aug-26 00:14N 39°18' E 001°25'9 8.8
2015-Aug-25 23:12N 39°23' E 001°15'  
2015-Aug-23 18:18N 39°58' E 000°02'0 0.0
2015-Aug-23 10:30N 39°58' E 000°02'56 1.7
2015-Aug-22 01:19N 39°04' E 000°27'10 8.5
2015-Aug-22 00:10N 38°55' E 000°30'5 8.3
2015-Aug-21 23:33N 38°50' E 000°32'8 8.4
2015-Aug-21 22:34N 38°42' E 000°35'9 8.6
2015-Aug-21 21:33N 38°34' E 000°38'8 8.4
2015-Aug-21 20:33N 38°26' E 000°41'9 8.5
2015-Aug-21 19:33N 38°18' E 000°44'8 8.2
2015-Aug-21 18:33N 38°10' E 000°47'8 8.4
2015-Aug-21 17:33N 38°01' E 000°49'9 8.5
2015-Aug-21 16:33N 37°53' E 000°52'9 8.7
2015-Aug-21 15:33N 37°45' E 000°54'9 8.6
2015-Aug-21 14:33N 37°36' E 000°57'9 8.8
2015-Aug-21 13:33N 37°28' E 001°00'9 8.7
2015-Aug-21 12:33N 37°20' E 001°03'9 8.6
2015-Aug-21 11:33N 37°11' E 001°06'10 8.0
2015-Aug-21 10:17N 37°01' E 001°10'23 8.4
2015-Aug-21 07:33N 36°39' E 001°16'8 7.9
2015-Aug-21 06:33N 36°32' E 001°19'  
Track history (hours):
 
Tides and Currents Weather Stations Pressure Air Temp Water Temp Dewpoint Dewpoint Depression Visibility Wind Speed Wind Dir Waves Ship Positions

Largo

Last reported at 2015-Aug-26 21:19 UTC. Time now 2015-Sep-02 06:30 UTC.
Position N 37°29' E 004°07'.

Length 91 m; draft 6.6 m.

Type: Cargo ship. MMSI: 245645000.

Date/timePositionNaut miles runAvg speedWind from/ knotsBaromVisibWave heightAir tempDewpointWater temp
2015-Aug-26 21:19N 37°29' E 004°07'21 7.3
2015-Aug-26 18:29N 37°43' E 003°47'8 7.4
2015-Aug-26 17:25N 37°48' E 003°40'10 7.5
2015-Aug-26 16:09N 37°55' E 003°31'29 7.2
2015-Aug-26 12:07N 38°14' E 003°04'21 8.0
2015-Aug-26 09:27N 38°28' E 002°43'25 8.3
2015-Aug-26 06:27N 38°45' E 002°19'9 8.5
2015-Aug-26 05:27N 38°50' E 002°11'8 8.9
2015-Aug-26 04:33N 38°55' E 002°03'9 8.8
2015-Aug-26 03:33N 39°01' E 001°55'9 8.7
2015-Aug-26 02:33N 39°07' E 001°46'9 8.8
2015-Aug-26 01:33N 39°12' E 001°37'11 8.7
2015-Aug-26 00:14N 39°18' E 001°25'9 8.8
2015-Aug-25 23:12N 39°23' E 001°15'  
2015-Aug-23 18:18N 39°58' E 000°02'0 0.0
2015-Aug-23 10:30N 39°58' E 000°02'56 1.7
2015-Aug-22 01:19N 39°04' E 000°27'10 8.5
2015-Aug-22 00:10N 38°55' E 000°30'5 8.3
2015-Aug-21 23:33N 38°50' E 000°32'8 8.4
2015-Aug-21 22:34N 38°42' E 000°35'9 8.6
2015-Aug-21 21:33N 38°34' E 000°38'8 8.4
2015-Aug-21 20:33N 38°26' E 000°41'9 8.5
2015-Aug-21 19:33N 38°18' E 000°44'8 8.2
2015-Aug-21 18:33N 38°10' E 000°47'8 8.4
2015-Aug-21 17:33N 38°01' E 000°49'9 8.5
2015-Aug-21 16:33N 37°53' E 000°52'9 8.7
2015-Aug-21 15:33N 37°45' E 000°54'9 8.6
2015-Aug-21 14:33N 37°36' E 000°57'9 8.8
2015-Aug-21 13:33N 37°28' E 001°00'9 8.7
2015-Aug-21 12:33N 37°20' E 001°03'9 8.6
2015-Aug-21 11:33N 37°11' E 001°06'10 8.0
2015-Aug-21 10:17N 37°01' E 001°10'23 8.4
2015-Aug-21 07:33N 36°39' E 001°16'8 7.9
2015-Aug-21 06:33N 36°32' E 001°19'  

Dump ship's entire track history